Time;durP1;ratioP1;P1;durP2;ratioP2;P2;SDS_P1;SDS_P2;PMS_P1;PMS_P2;Temp;Humidity;BMP_temperature;BMP_pressure;BME280_temperature;BME280_humidity;BME280_pressure;Samples;Min_cycle;Max_cycle;Signal;HPM_P1;HPM_P2
2021/07/01 00:01:42;;;;;;;1.70;1.60;;;13.00;99.90;;;;;;5078395;28;21077;-78
2021/07/01 00:04:08;;;;;;;1.40;1.30;;;12.80;99.90;;;;;;5074874;28;20826;-78
2021/07/01 00:06:33;;;;;;;1.83;1.43;;;13.00;99.90;;;;;;5071245;28;20428;-79
2021/07/01 00:08:59;;;;;;;1.20;1.20;;;12.80;99.90;;;;;;5070484;28;20648;-77
2021/07/01 00:11:25;;;;;;;1.37;1.27;;;12.90;99.90;;;;;;5091641;28;20185;-79
2021/07/01 00:13:50;;;;;;;1.50;1.40;;;12.90;99.90;;;;;;5071785;28;20221;-78
2021/07/01 00:16:16;;;;;;;1.30;1.20;;;12.90;99.90;;;;;;5064047;28;20231;-78
2021/07/01 00:18:41;;;;;;;1.30;1.20;;;13.10;99.90;;;;;;5078332;28;20630;-77
2021/07/01 00:21:07;;;;;;;1.57;1.33;;;13.00;99.90;;;;;;5079016;28;20210;-78
2021/07/01 00:23:32;;;;;;;1.30;1.20;;;12.70;99.90;;;;;;5084076;28;20272;-77
2021/07/01 00:25:58;;;;;;;1.53;1.30;;;13.00;99.90;;;;;;5092415;28;20185;-77
2021/07/01 00:28:23;;;;;;;1.90;1.60;;;12.90;99.90;;;;;;5087419;28;20258;-78
2021/07/01 00:30:49;;;;;;;1.27;1.17;;;12.70;99.90;;;;;;5075748;28;20239;-77
2021/07/01 00:33:15;;;;;;;1.77;1.40;;;13.00;99.90;;;;;;5088222;28;20229;-78
2021/07/01 00:35:41;;;;;;;1.20;1.10;;;13.10;99.90;;;;;;5091907;28;20169;-78
2021/07/01 00:38:07;;;;;;;1.43;1.20;;;13.00;99.90;;;;;;5077317;28;20207;-77
2021/07/01 00:40:32;;;;;;;1.10;1.00;;;13.10;99.90;;;;;;5079945;28;20940;-77
2021/07/01 00:42:58;;;;;;;1.20;1.10;;;12.90;99.90;;;;;;5084137;28;20678;-77
2021/07/01 00:45:23;;;;;;;1.20;1.20;;;12.90;99.90;;;;;;5091693;28;20180;-77
2021/07/01 00:47:49;;;;;;;1.27;1.17;;;12.90;99.90;;;;;;5076291;28;20189;-76
2021/07/01 00:50:15;;;;;;;1.10;1.00;;;12.90;99.90;;;;;;5081886;28;20254;-76
2021/07/01 00:52:41;;;;;;;1.23;1.13;;;12.90;99.90;;;;;;5053487;28;20225;-77
2021/07/01 00:55:08;;;;;;;2.70;1.23;;;12.90;99.90;;;;;;5051185;28;20455;-77
2021/07/01 00:57:34;;;;;;;1.60;1.50;;;12.90;99.90;;;;;;5061105;28;20847;-76
2021/07/01 01:00:00;;;;;;;1.13;1.13;;;13.00;99.90;;;;;;5075210;28;20942;-76
2021/07/01 01:02:26;;;;;;;1.00;0.90;;;12.70;99.90;;;;;;5087209;28;20466;-77
2021/07/01 01:04:51;;;;;;;1.70;1.07;;;12.70;99.90;;;;;;5081750;28;20462;-76
2021/07/01 01:07:17;;;;;;;0.90;0.90;;;13.00;99.90;;;;;;5057594;28;20288;-76
2021/07/01 01:09:43;;;;;;;0.90;0.90;;;12.80;99.90;;;;;;5056948;28;20211;-76
2021/07/01 01:12:09;;;;;;;1.23;0.90;;;13.00;99.90;;;;;;5060672;28;20435;-76
2021/07/01 01:14:34;;;;;;;0.90;0.90;;;12.80;99.90;;;;;;5061094;28;20212;-76
2021/07/01 01:17:00;;;;;;;1.10;1.00;;;12.80;99.90;;;;;;5074639;28;20183;-76
2021/07/01 01:19:25;;;;;;;1.30;1.20;;;12.90;99.90;;;;;;5069955;28;20216;-76
2021/07/01 01:21:51;;;;;;;1.00;1.00;;;12.80;99.90;;;;;;5080728;28;20862;-76
2021/07/01 01:24:17;;;;;;;1.83;1.17;;;12.80;99.90;;;;;;5070466;28;20173;-77
2021/07/01 01:26:42;;;;;;;0.70;0.70;;;12.90;99.90;;;;;;5070239;28;20182;-75
2021/07/01 01:29:08;;;;;;;1.00;1.00;;;12.80;99.90;;;;;;5065941;28;20178;-76
2021/07/01 01:31:37;;;;;;;1.00;1.00;;;12.60;99.90;;;;;;5071029;28;20189;-76
2021/07/01 01:34:03;;;;;;;0.77;0.77;;;12.70;99.90;;;;;;5072559;28;20583;-77
2021/07/01 01:36:29;;;;;;;0.90;0.90;;;12.90;99.90;;;;;;5077783;28;20466;-76
2021/07/01 01:38:55;;;;;;;0.90;0.90;;;12.60;99.90;;;;;;5070689;28;20530;-76
2021/07/01 01:41:28;;;;;;;1.27;1.13;;;12.70;99.90;;;;;;5063056;28;20240;-76
2021/07/01 01:43:54;;;;;;;0.83;0.83;;;12.70;99.90;;;;;;5086174;28;20434;-77
2021/07/01 01:46:19;;;;;;;0.90;0.90;;;12.70;99.90;;;;;;5070028;28;20430;-76
2021/07/01 01:48:50;;;;;;;1.53;1.00;;;12.60;99.90;;;;;;5070185;28;20805;-76
2021/07/01 01:51:16;;;;;;;1.00;1.00;;;12.90;99.90;;;;;;5063776;28;20293;-76
2021/07/01 01:53:41;;;;;;;0.80;0.80;;;12.80;99.90;;;;;;5050000;28;20555;-76
2021/07/01 01:56:07;;;;;;;1.00;1.00;;;12.50;99.90;;;;;;5050825;28;20187;-76
2021/07/01 01:58:33;;;;;;;0.87;0.87;;;12.60;99.90;;;;;;5071004;28;20186;-76
2021/07/01 02:00:58;;;;;;;1.80;1.10;;;12.80;99.90;;;;;;5085599;28;20230;-76
2021/07/01 02:03:23;;;;;;;0.80;0.80;;;12.80;99.90;;;;;;5051417;28;20187;-76
2021/07/01 02:05:49;;;;;;;1.57;0.93;;;12.70;99.90;;;;;;5081518;28;20181;-76
2021/07/01 02:08:14;;;;;;;0.83;0.80;;;12.90;99.90;;;;;;5069851;28;20225;-76
2021/07/01 02:10:40;;;;;;;1.13;0.70;;;12.50;99.90;;;;;;5073350;28;20224;-75
2021/07/01 02:13:11;;;;;;;1.07;1.00;;;12.70;99.90;;;;;;5057075;28;20216;-76
2021/07/01 02:15:37;;;;;;;1.10;1.00;;;12.80;99.90;;;;;;5071973;28;20196;-76
2021/07/01 02:18:02;;;;;;;2.20;0.90;;;12.50;99.90;;;;;;5081468;28;20439;-76
2021/07/01 02:20:28;;;;;;;1.00;1.00;;;12.90;99.90;;;;;;5075109;28;20208;-76
2021/07/01 02:22:54;;;;;;;0.90;0.90;;;12.80;99.90;;;;;;5072672;28;20529;-76
2021/07/01 02:25:20;;;;;;;0.80;0.80;;;12.90;99.90;;;;;;5067873;28;20432;-76
2021/07/01 02:27:46;;;;;;;1.77;1.00;;;12.70;99.90;;;;;;5063939;28;20464;-76
2021/07/01 02:30:14;;;;;;;1.20;1.17;;;12.70;99.90;;;;;;5074275;28;20431;-76
2021/07/01 02:32:40;;;;;;;1.33;1.23;;;12.70;99.90;;;;;;5072231;28;20482;-76
2021/07/01 02:35:09;;;;;;;1.23;0.93;;;13.00;99.90;;;;;;5069292;28;20428;-76
2021/07/01 02:37:35;;;;;;;0.80;0.80;;;12.90;99.90;;;;;;5053367;28;20251;-76
2021/07/01 02:40:03;;;;;;;1.15;1.10;;;13.00;99.90;;;;;;5055134;28;20437;-75
2021/07/01 02:42:28;;;;;;;1.27;0.83;;;13.00;99.90;;;;;;5071112;28;20217;-76
2021/07/01 02:44:54;;;;;;;1.40;1.00;;;12.90;99.90;;;;;;5064940;28;21081;-76
2021/07/01 02:47:19;;;;;;;1.10;1.00;;;12.60;99.90;;;;;;5082522;28;20268;-75
2021/07/01 02:49:45;;;;;;;1.00;1.00;;;13.00;99.90;;;;;;5082802;28;20210;-75
2021/07/01 02:52:10;;;;;;;0.90;0.90;;;12.90;99.90;;;;;;5081826;28;20550;-76
2021/07/01 02:54:36;;;;;;;1.23;0.80;;;12.90;99.90;;;;;;5069560;28;20182;-76
2021/07/01 02:57:01;;;;;;;1.57;1.30;;;12.60;99.90;;;;;;5058850;28;20206;-76
2021/07/01 02:59:27;;;;;;;1.27;1.17;;;13.00;99.90;;;;;;5080620;28;20283;-76
2021/07/01 03:01:52;;;;;;;1.50;1.40;;;12.60;99.90;;;;;;5049161;28;20222;-75
2021/07/01 03:04:18;;;;;;;1.30;1.20;;;12.70;99.90;;;;;;5074669;28;20186;-76
2021/07/01 03:06:44;;;;;;;1.47;1.10;;;12.80;99.90;;;;;;5067800;28;20184;-75
2021/07/01 03:09:10;;;;;;;1.60;1.17;;;12.40;99.90;;;;;;5081012;28;20190;-75
2021/07/01 03:11:37;;;;;;;1.60;1.50;;;12.50;99.90;;;;;;5066825;28;20193;-76
2021/07/01 03:14:04;;;;;;;1.07;0.97;;;12.90;99.90;;;;;;5049110;28;20513;-76
2021/07/01 03:16:33;;;;;;;1.10;1.10;;;12.40;99.90;;;;;;5068078;28;20427;-76
2021/07/01 03:18:59;;;;;;;1.57;1.03;;;12.60;99.90;;;;;;5068183;28;21029;-75
2021/07/01 03:21:25;;;;;;;0.83;0.83;;;12.80;99.90;;;;;;5062633;28;20555;-76
2021/07/01 03:23:50;;;;;;;1.37;1.23;;;12.80;99.90;;;;;;5048824;28;20444;-76
2021/07/01 03:26:17;;;;;;;1.13;1.03;;;12.60;99.90;;;;;;5062086;28;20181;-76
2021/07/01 03:28:43;;;;;;;1.30;1.20;;;12.90;99.90;;;;;;5071454;28;20174;-76
2021/07/01 03:31:09;;;;;;;2.23;1.50;;;12.70;99.90;;;;;;5068478;28;20454;-76
2021/07/01 03:33:35;;;;;;;1.57;1.30;;;12.70;99.90;;;;;;5082945;28;21268;-76
2021/07/01 03:36:03;;;;;;;1.40;1.30;;;12.90;99.90;;;;;;5075046;28;20526;-76
2021/07/01 03:38:28;;;;;;;1.20;1.10;;;12.70;99.90;;;;;;5072437;28;21154;-76
2021/07/01 03:40:54;;;;;;;1.17;1.07;;;13.00;99.90;;;;;;5080698;28;20560;-76
2021/07/01 03:43:20;;;;;;;1.50;1.40;;;12.80;99.90;;;;;;5068482;28;20190;-76
2021/07/01 03:45:45;;;;;;;1.93;1.37;;;12.80;99.90;;;;;;5068562;28;20813;-77
2021/07/01 03:48:11;;;;;;;2.90;1.20;;;12.90;99.90;;;;;;5080552;28;20423;-76
2021/07/01 03:50:37;;;;;;;1.17;1.10;;;13.00;99.90;;;;;;5076560;28;20184;-77
2021/07/01 03:53:02;;;;;;;1.73;1.30;;;12.80;99.90;;;;;;5063382;28;20243;-77
2021/07/01 03:55:28;;;;;;;1.50;1.40;;;12.60;99.90;;;;;;5052462;28;20280;-77
2021/07/01 03:57:53;;;;;;;1.63;1.53;;;13.00;99.90;;;;;;5061574;28;20240;-76
2021/07/01 04:00:19;;;;;;;2.07;1.57;;;13.00;99.90;;;;;;5076072;28;20182;-77
2021/07/01 04:02:45;;;;;;;1.60;1.50;;;13.00;99.90;;;;;;5055234;28;20178;-76
2021/07/01 04:05:11;;;;;;;1.63;1.52;;;12.80;99.90;;;;;;5076343;28;20180;-76
2021/07/01 04:07:37;;;;;;;2.13;1.97;;;12.70;99.90;;;;;;5081009;28;20241;-77
2021/07/01 04:10:08;;;;;;;2.43;1.77;;;12.80;99.90;;;;;;5075991;28;20203;-76
2021/07/01 04:12:35;;;;;;;1.75;1.60;;;12.70;99.90;;;;;;5082553;28;20427;-77
2021/07/01 04:15:01;;;;;;;1.60;1.50;;;13.00;99.90;;;;;;5074118;28;20674;-76
2021/07/01 04:17:27;;;;;;;1.90;1.80;;;12.80;99.90;;;;;;5080971;28;20427;-76
2021/07/01 04:19:52;;;;;;;2.23;1.93;;;13.00;99.90;;;;;;5076358;28;20814;-75
2021/07/01 04:22:18;;;;;;;1.90;1.80;;;12.90;99.90;;;;;;5080176;28;20770;-81
2021/07/01 04:24:43;;;;;;;2.60;2.13;;;12.90;99.90;;;;;;5071094;28;20182;-76
2021/07/01 04:27:09;;;;;;;2.60;2.40;;;13.10;99.90;;;;;;5070912;28;20178;-76
2021/07/01 04:29:35;;;;;;;3.13;1.77;;;13.00;99.90;;;;;;5072333;28;20192;-76
2021/07/01 04:32:00;;;;;;;2.77;2.57;;;12.90;99.90;;;;;;5072780;28;20228;-76
2021/07/01 04:34:26;;;;;;;3.13;2.50;;;13.10;99.90;;;;;;5074955;28;20190;-77
2021/07/01 04:36:52;;;;;;;2.30;2.10;;;13.00;99.90;;;;;;5079465;28;20193;-77
2021/07/01 04:39:17;;;;;;;2.90;2.57;;;13.20;99.90;;;;;;5082163;28;20214;-76
2021/07/01 04:41:43;;;;;;;2.93;2.10;;;13.10;99.90;;;;;;5074533;28;20460;-76
2021/07/01 04:44:09;;;;;;;2.50;2.30;;;13.10;99.90;;;;;;5072191;28;20320;-77
2021/07/01 04:46:34;;;;;;;2.70;2.50;;;13.00;99.90;;;;;;5071095;28;20243;-76
2021/07/01 04:49:00;;;;;;;2.23;2.03;;;13.00;99.90;;;;;;5071002;28;20676;-76
2021/07/01 04:51:27;;;;;;;3.00;2.73;;;13.20;99.90;;;;;;5075165;28;20428;-76
2021/07/01 04:53:52;;;;;;;4.37;2.40;;;13.30;99.90;;;;;;5070850;28;20424;-78
2021/07/01 04:56:18;;;;;;;3.23;1.97;;;13.20;99.90;;;;;;5067919;28;20491;-77
2021/07/01 04:58:44;;;;;;;3.20;2.20;;;13.30;99.90;;;;;;5071307;28;20278;-77
2021/07/01 05:01:09;;;;;;;2.77;2.50;;;13.30;99.90;;;;;;5064157;28;20205;-77
2021/07/01 05:03:35;;;;;;;2.73;2.53;;;13.20;99.90;;;;;;5080248;28;20234;-76
2021/07/01 05:06:01;;;;;;;2.70;2.20;;;13.60;99.90;;;;;;5074153;28;20182;-76
2021/07/01 05:08:27;;;;;;;2.33;2.13;;;13.40;99.90;;;;;;5072375;28;20225;-76
2021/07/01 05:10:52;;;;;;;2.50;2.30;;;13.40;99.90;;;;;;5078511;28;20444;-79
2021/07/01 05:13:18;;;;;;;3.17;2.80;;;13.20;99.90;;;;;;5075066;28;20183;-78
2021/07/01 05:15:44;;;;;;;2.30;2.10;;;13.50;99.90;;;;;;5068649;28;20546;-77
2021/07/01 05:18:09;;;;;;;3.13;2.83;;;13.60;99.90;;;;;;5080096;28;20190;-75
2021/07/01 05:20:35;;;;;;;2.70;2.50;;;13.70;99.90;;;;;;5076851;28;20217;-77
2021/07/01 05:23:00;;;;;;;3.00;2.37;;;13.60;99.90;;;;;;5065479;28;20205;-77
2021/07/01 05:25:26;;;;;;;2.57;2.37;;;13.70;99.90;;;;;;5070452;28;20182;-78
2021/07/01 05:27:51;;;;;;;4.87;2.60;;;13.70;99.90;;;;;;5068776;28;20651;-76
2021/07/01 05:30:17;;;;;;;2.97;2.70;;;13.70;99.90;;;;;;5070013;28;20206;-76
2021/07/01 05:32:43;;;;;;;3.40;3.10;;;13.80;99.90;;;;;;5069982;28;20678;-76
2021/07/01 05:35:09;;;;;;;3.10;2.73;;;13.60;99.90;;;;;;5070205;28;20428;-77
2021/07/01 05:37:34;;;;;;;3.33;2.70;;;13.60;99.90;;;;;;5079328;28;20185;-77
2021/07/01 05:40:00;;;;;;;3.40;3.10;;;13.50;99.90;;;;;;5070220;28;20485;-77
2021/07/01 05:42:26;;;;;;;2.83;2.50;;;13.70;99.90;;;;;;5073879;28;20204;-76
2021/07/01 05:44:51;;;;;;;3.10;2.80;;;13.80;99.90;;;;;;5070181;28;20933;-77
2021/07/01 05:47:17;;;;;;;2.70;2.37;;;13.70;99.90;;;;;;5064512;28;20550;-76
2021/07/01 05:49:42;;;;;;;2.90;2.37;;;14.20;99.90;;;;;;5067716;28;20202;-76
2021/07/01 05:52:09;;;;;;;2.13;1.93;;;14.30;99.90;;;;;;5076621;28;20242;-76
2021/07/01 05:54:36;;;;;;;2.40;2.20;;;14.40;99.90;;;;;;5069921;28;20213;-77
2021/07/01 05:57:03;;;;;;;3.00;2.70;;;14.60;99.90;;;;;;5066589;28;20428;-76
2021/07/01 05:59:29;;;;;;;2.40;2.20;;;14.50;99.90;;;;;;5068460;28;20424;-77
2021/07/01 06:01:55;;;;;;;2.20;2.00;;;14.40;99.90;;;;;;5069302;28;20467;-76
2021/07/01 06:04:20;;;;;;;2.27;2.13;;;14.70;99.90;;;;;;5073334;28;20185;-76
2021/07/01 06:06:51;;;;;;;1.70;1.60;;;14.60;99.90;;;;;;5071377;28;20280;-76
2021/07/01 06:09:24;;;;;;;2.07;1.47;;;14.60;99.90;;;;;;5073563;28;20272;-76
2021/07/01 06:11:55;;;;;;;1.90;1.80;;;14.70;99.90;;;;;;5071306;28;20431;-76
2021/07/01 06:14:22;;;;;;;1.40;1.30;;;14.50;99.90;;;;;;5060951;28;21005;-76
2021/07/01 06:16:50;;;;;;;1.60;1.50;;;14.70;99.90;;;;;;5070777;28;20539;-76
2021/07/01 06:19:17;;;;;;;1.50;1.40;;;14.60;99.90;;;;;;5074186;28;20435;-75
2021/07/01 06:21:42;;;;;;;2.30;1.40;;;14.60;99.90;;;;;;5072108;28;20487;-76
2021/07/01 06:24:09;;;;;;;1.60;1.50;;;14.50;99.90;;;;;;5081879;28;20975;-76
2021/07/01 06:26:36;;;;;;;1.80;1.70;;;14.60;99.90;;;;;;5077009;28;20565;-76
2021/07/01 06:29:03;;;;;;;1.60;1.50;;;14.50;99.90;;;;;;5072878;28;20469;-76
2021/07/01 06:31:28;;;;;;;1.63;1.37;;;14.50;99.90;;;;;;5074707;28;20443;-76
2021/07/01 06:33:54;;;;;;;1.50;1.40;;;14.40;99.90;;;;;;5083159;28;20431;-76
2021/07/01 06:36:23;;;;;;;1.47;1.37;;;14.50;99.90;;;;;;5076529;28;20432;-75
2021/07/01 06:39:00;;;;;;;1.60;1.50;;;14.50;99.90;;;;;;5075166;28;20185;-76
2021/07/01 06:41:27;;;;;;;1.73;1.63;;;14.60;99.90;;;;;;5062676;28;21035;-75
2021/07/01 06:43:55;;;;;;;2.17;1.63;;;14.80;99.90;;;;;;5073847;28;20416;-76
2021/07/01 06:46:20;;;;;;;1.87;1.70;;;14.80;99.90;;;;;;5070138;28;20511;-75
2021/07/01 06:48:51;;;;;;;2.10;1.80;;;15.00;99.90;;;;;;5073329;28;20523;-76
2021/07/01 06:51:18;;;;;;;2.83;2.07;;;15.00;99.90;;;;;;5069514;28;20193;-76
2021/07/01 06:53:45;;;;;;;1.87;1.77;;;14.90;99.90;;;;;;5071901;28;20438;-77
2021/07/01 06:56:11;;;;;;;2.70;1.93;;;15.00;99.90;;;;;;5068472;28;20443;-77
2021/07/01 06:58:39;;;;;;;1.60;1.50;;;15.10;99.90;;;;;;5071574;28;20431;-75
2021/07/01 07:01:05;;;;;;;2.30;2.10;;;15.20;99.90;;;;;;5066192;28;20471;-76
2021/07/01 07:03:31;;;;;;;1.97;1.87;;;15.10;99.90;;;;;;5074888;28;21012;-76
2021/07/01 07:08:56;;;;;;;1.90;1.80;;;15.40;99.90;;;;;;5059956;28;20445;-76
2021/07/01 07:11:22;;;;;;;1.97;1.87;;;15.60;99.90;;;;;;5069128;28;20440;-76
2021/07/01 07:13:48;;;;;;;2.00;1.80;;;15.70;99.90;;;;;;5083175;28;20437;-78
2021/07/01 07:16:13;;;;;;;2.17;2.07;;;15.90;99.90;;;;;;5070125;28;20624;-75
2021/07/01 07:18:41;;;;;;;2.60;2.40;;;16.00;99.90;;;;;;5074961;28;20181;-76
2021/07/01 07:21:11;;;;;;;1.90;1.80;;;16.00;99.90;;;;;;5068352;28;20226;-76
2021/07/01 07:23:37;;;;;;;1.93;1.83;;;16.20;99.90;;;;;;5065967;28;20428;-76
2021/07/01 07:26:15;;;;;;;2.97;2.70;;;16.40;99.90;;;;;;5068615;28;20435;-76
2021/07/01 07:28:48;;;;;;;2.10;2.00;;;16.60;99.90;;;;;;5071976;28;20941;-75
2021/07/01 07:31:22;;;;;;;2.03;1.93;;;16.60;99.90;;;;;;5085002;28;20481;-75
2021/07/01 07:33:49;;;;;;;2.57;2.37;;;16.50;99.90;;;;;;5075014;28;20446;-75
2021/07/01 07:36:22;;;;;;;2.80;2.60;;;17.20;99.90;;;;;;5078190;28;20496;-76
2021/07/01 07:38:53;;;;;;;3.80;2.13;;;17.30;99.90;;;;;;5079867;28;20436;-77
2021/07/01 07:41:19;;;;;;;2.40;2.20;;;17.20;99.90;;;;;;5079755;28;20479;-77
2021/07/01 07:43:46;;;;;;;2.80;2.60;;;17.40;99.90;;;;;;5082089;28;20437;-77
2021/07/01 07:46:12;;;;;;;3.13;2.20;;;17.50;99.90;;;;;;5086569;28;20607;-77
2021/07/01 07:48:39;;;;;;;2.93;2.63;;;17.80;99.90;;;;;;5078227;28;20438;-82
2021/07/01 07:51:05;;;;;;;2.97;2.67;;;17.80;99.90;;;;;;5073310;28;20440;-74
2021/07/01 07:53:33;;;;;;;3.00;2.80;;;17.90;99.90;;;;;;5083328;28;20451;-75
2021/07/01 07:56:06;;;;;;;3.03;2.83;;;18.20;99.90;;;;;;5071291;28;20846;-75
2021/07/01 07:58:35;;;;;;;2.80;2.17;;;18.30;99.90;;;;;;5084495;28;20800;-75
2021/07/01 08:01:01;;;;;;;3.17;2.97;;;18.40;99.90;;;;;;5091635;28;20466;-75
2021/07/01 08:03:32;;;;;;;3.60;2.30;;;18.30;99.90;;;;;;5086196;28;20535;-75
2021/07/01 08:06:01;;;;;;;2.73;2.53;;;18.70;99.90;;;;;;5071114;28;20436;-76
2021/07/01 08:08:29;;;;;;;2.80;2.60;;;18.50;99.90;;;;;;5075105;28;20473;-75
2021/07/01 08:10:57;;;;;;;2.63;2.43;;;18.30;99.90;;;;;;5074657;28;20490;-74
2021/07/01 08:13:24;;;;;;;3.40;2.83;;;18.50;99.90;;;;;;5082900;28;20435;-75
2021/07/01 08:15:50;;;;;;;3.77;3.50;;;17.90;99.90;;;;;;5070164;28;20436;-75
2021/07/01 08:18:39;;;;;;;15.87;14.77;;;18.00;99.90;;;;;;5079557;28;20517;-75
2021/07/01 08:21:13;;;;;;;5.30;4.90;;;17.50;99.90;;;;;;5074869;28;20460;-75
2021/07/01 08:23:41;;;;;;;3.37;3.10;;;17.80;99.90;;;;;;5084264;28;20442;-75
2021/07/01 08:26:07;;;;;;;3.40;3.20;;;17.80;99.90;;;;;;5074078;28;20434;-75
2021/07/01 08:28:33;;;;;;;2.90;2.70;;;17.30;99.90;;;;;;5071852;28;20669;-74
2021/07/01 08:31:09;;;;;;;3.17;2.87;;;17.60;99.90;;;;;;5072647;28;20481;-75
2021/07/01 08:33:37;;;;;;;3.20;3.00;;;17.70;99.90;;;;;;5059690;28;20612;-75
2021/07/01 08:36:04;;;;;;;3.20;3.00;;;17.30;99.90;;;;;;5081776;28;21359;-75
2021/07/01 08:38:38;;;;;;;3.43;3.00;;;17.50;99.90;;;;;;5071551;28;20926;-77
2021/07/01 08:41:18;;;;;;;3.27;2.97;;;17.20;99.90;;;;;;5072402;28;21011;-75
2021/07/01 08:43:56;;;;;;;3.27;3.07;;;16.90;99.90;;;;;;5089269;28;20442;-76
2021/07/01 08:46:25;;;;;;;3.97;3.63;;;16.80;99.90;;;;;;5055333;28;20434;-76
2021/07/01 08:49:00;;;;;;;3.03;2.80;;;17.00;99.90;;;;;;5072573;28;20428;-76
2021/07/01 08:51:31;;;;;;;3.27;2.97;;;16.90;99.90;;;;;;5067937;28;20436;-76
2021/07/01 08:54:13;;;;;;;3.63;3.33;;;16.90;99.90;;;;;;5062075;28;20429;-76
2021/07/01 08:56:39;;;;;;;3.57;3.30;;;16.80;99.90;;;;;;5052853;28;20476;-77
2021/07/01 08:59:06;;;;;;;3.67;3.37;;;16.90;99.90;;;;;;5085057;28;20588;-76
2021/07/01 09:01:32;;;;;;;3.37;3.17;;;16.90;99.90;;;;;;5089403;28;20471;-76
2021/07/01 09:03:58;;;;;;;4.13;3.73;;;16.70;99.90;;;;;;5078907;28;20501;-75
2021/07/01 09:06:25;;;;;;;3.83;3.53;;;16.50;99.90;;;;;;5083431;28;20277;-76
2021/07/01 09:08:52;;;;;;;4.10;3.70;;;16.60;99.90;;;;;;5075066;28;20476;-76
2021/07/01 09:11:20;;;;;;;3.80;3.50;;;16.40;99.90;;;;;;5074402;28;20922;-76
2021/07/01 09:13:48;;;;;;;3.53;3.27;;;16.60;99.90;;;;;;5071868;28;20484;-76
2021/07/01 09:16:16;;;;;;;3.60;3.30;;;16.50;99.90;;;;;;5074373;28;20440;-76
2021/07/01 09:18:45;;;;;;;3.80;3.50;;;16.80;99.90;;;;;;5073303;28;20844;-75
2021/07/01 09:21:13;;;;;;;3.70;3.40;;;16.60;99.90;;;;;;5079527;28;20466;-76
2021/07/01 09:23:47;;;;;;;4.23;3.83;;;16.80;99.90;;;;;;5081193;28;20435;-76
2021/07/01 09:26:21;;;;;;;4.20;3.90;;;16.80;99.90;;;;;;5070565;28;20423;-77
2021/07/01 09:28:49;;;;;;;3.70;3.40;;;16.70;99.90;;;;;;5069621;28;20520;-76
2021/07/01 09:31:18;;;;;;;13.70;12.70;;;17.00;99.90;;;;;;5070505;28;20436;-76
2021/07/01 09:33:48;;;;;;;8.07;7.37;;;16.80;99.90;;;;;;5090944;28;20927;-76
2021/07/01 09:36:15;;;;;;;4.20;3.90;;;16.90;99.90;;;;;;5071134;28;20448;-76
2021/07/01 09:38:42;;;;;;;3.83;3.53;;;16.80;99.90;;;;;;5071062;28;20483;-78
2021/07/01 09:41:09;;;;;;;3.93;3.63;;;17.50;99.90;;;;;;5070130;28;20883;-76
2021/07/01 09:43:36;;;;;;;4.40;3.60;;;17.70;99.90;;;;;;5074439;28;20440;-76
2021/07/01 09:46:02;;;;;;;3.23;3.03;;;17.90;99.90;;;;;;5071055;28;20432;-76
2021/07/01 09:48:32;;;;;;;3.50;3.20;;;18.20;99.90;;;;;;5069932;28;21052;-77
2021/07/01 09:51:03;;;;;;;3.73;3.43;;;18.40;99.90;;;;;;5071136;28;20214;-76
2021/07/01 09:53:31;;;;;;;3.43;3.23;;;18.60;99.90;;;;;;5071533;28;20969;-77
2021/07/01 09:56:01;;;;;;;3.10;2.90;;;19.00;99.90;;;;;;5078710;28;20432;-77
2021/07/01 09:58:30;;;;;;;2.97;2.77;;;19.10;99.90;;;;;;5072430;28;20434;-75
2021/07/01 10:00:56;;;;;;;3.17;2.97;;;19.30;99.90;;;;;;5071030;28;20535;-75
2021/07/01 10:03:21;;;;;;;2.90;2.70;;;19.00;99.90;;;;;;5069705;28;20541;-76
2021/07/01 10:05:47;;;;;;;2.80;2.60;;;19.20;99.90;;;;;;5082280;28;20193;-77
2021/07/01 10:08:13;;;;;;;3.23;2.93;;;19.00;99.90;;;;;;5072593;28;20313;-77
2021/07/01 10:10:46;;;;;;;3.30;3.00;;;19.00;99.90;;;;;;5073091;28;20208;-78
2021/07/01 10:13:12;;;;;;;3.57;3.37;;;19.10;99.90;;;;;;5076227;28;20196;-77
2021/07/01 10:15:39;;;;;;;3.00;2.80;;;19.50;99.90;;;;;;5089907;28;20447;-76
2021/07/01 10:18:07;;;;;;;2.73;2.43;;;19.50;99.90;;;;;;5078601;28;20433;-77
2021/07/01 10:20:44;;;;;;;3.23;3.10;;;19.30;99.90;;;;;;5074004;28;20432;-77
2021/07/01 10:23:19;;;;;;;2.53;2.33;;;19.50;99.90;;;;;;5070730;28;20464;-77
2021/07/01 10:25:46;;;;;;;3.17;2.90;;;19.50;99.90;;;;;;5083458;28;20428;-76
2021/07/01 10:28:15;;;;;;;3.00;2.80;;;19.50;99.90;;;;;;5069616;28;20427;-77
2021/07/01 10:30:42;;;;;;;2.70;2.60;;;19.40;99.90;;;;;;5079768;28;20426;-77
2021/07/01 10:33:25;;;;;;;5.23;3.00;;;19.40;99.90;;;;;;5077053;28;20438;-76
2021/07/01 10:35:51;;;;;;;2.20;2.10;;;19.40;99.90;;;;;;5080691;28;20437;-77
2021/07/01 10:38:17;;;;;;;2.50;2.30;;;19.70;95.20;;;;;;5076879;28;20490;-78
2021/07/01 10:40:51;;;;;;;2.50;2.30;;;19.50;96.40;;;;;;5087823;28;20441;-77
2021/07/01 10:43:18;;;;;;;2.40;2.20;;;19.40;95.70;;;;;;5072454;28;20922;-80
2021/07/01 10:45:57;;;;;;;2.37;2.20;;;18.90;97.60;;;;;;5076267;28;20477;-78
2021/07/01 10:48:24;;;;;;;2.50;2.27;;;19.10;99.40;;;;;;5077705;28;20432;-77
2021/07/01 10:50:51;;;;;;;2.97;2.67;;;19.10;99.90;;;;;;5070960;28;20442;-77
2021/07/01 10:53:32;;;;;;;2.50;2.40;;;18.70;99.90;;;;;;5078552;28;20822;-78
2021/07/01 10:56:01;;;;;;;2.37;2.27;;;19.00;98.10;;;;;;5069199;28;20450;-78
2021/07/01 10:58:28;;;;;;;2.30;2.10;;;18.90;97.50;;;;;;5068969;28;20436;-78
2021/07/01 11:00:54;;;;;;;2.83;2.63;;;18.20;97.00;;;;;;5073508;28;20475;-78
2021/07/01 11:03:26;;;;;;;2.80;2.40;;;18.40;97.40;;;;;;5079191;28;20428;-78
2021/07/01 11:05:52;;;;;;;2.57;2.37;;;17.80;98.50;;;;;;5079716;28;20428;-78
2021/07/01 11:08:29;;;;;;;2.40;2.20;;;17.80;99.90;;;;;;5075173;28;20480;-78
2021/07/01 11:10:56;;;;;;;2.17;2.07;;;17.50;99.90;;;;;;5080743;28;20849;-78
2021/07/01 11:13:24;;;;;;;1.67;1.57;;;17.00;99.90;;;;;;5083788;28;20530;-77
2021/07/01 11:16:04;;;;;;;2.47;2.37;;;16.90;99.90;;;;;;5068812;28;20444;-77
2021/07/01 11:18:39;;;;;;;2.37;2.17;;;16.40;99.90;;;;;;5072675;28;20962;-82
2021/07/01 11:21:19;;;;;;;2.27;2.07;;;16.20;99.90;;;;;;5074597;28;20489;-77
2021/07/01 11:23:50;;;;;;;2.10;2.00;;;16.00;99.90;;;;;;5071856;28;20435;-77
2021/07/01 11:26:28;;;;;;;2.20;2.10;;;15.80;99.90;;;;;;5073787;28;20523;-78
2021/07/01 11:28:54;;;;;;;2.80;2.60;;;15.50;99.90;;;;;;5072739;28;20894;-77
2021/07/01 11:31:40;;;;;;;2.13;2.03;;;15.50;99.90;;;;;;5070611;28;20910;-77
2021/07/01 11:34:07;;;;;;;2.20;2.00;;;15.60;99.90;;;;;;5072315;28;20431;-77
2021/07/01 11:36:35;;;;;;;2.50;2.30;;;15.30;99.90;;;;;;5052324;28;20532;-78
2021/07/01 11:39:12;;;;;;;2.07;1.97;;;14.90;99.90;;;;;;5052017;28;20907;-78
2021/07/01 11:41:41;;;;;;;2.70;2.50;;;15.00;99.90;;;;;;5052336;28;20460;-78
2021/07/01 11:44:08;;;;;;;2.57;2.30;;;15.00;99.90;;;;;;5077103;28;20459;-78
2021/07/01 11:46:34;;;;;;;2.40;2.10;;;15.00;99.90;;;;;;5072055;28;20424;-78
2021/07/01 11:49:03;;;;;;;2.40;2.20;;;14.90;99.90;;;;;;5072188;28;20423;-78
2021/07/01 11:51:31;;;;;;;2.87;2.07;;;14.70;99.90;;;;;;5072411;28;20228;-78
2021/07/01 11:53:56;;;;;;;2.37;2.17;;;14.90;99.90;;;;;;5072604;28;20457;-78
2021/07/01 11:56:23;;;;;;;2.27;2.17;;;15.10;99.90;;;;;;5070881;28;20564;-79
2021/07/01 11:58:48;;;;;;;2.67;2.40;;;15.00;99.90;;;;;;5072319;28;20312;-78
2021/07/01 12:01:14;;;;;;;2.50;2.30;;;15.30;99.90;;;;;;5071532;28;20987;-78
2021/07/01 12:03:41;;;;;;;2.77;2.57;;;15.70;99.90;;;;;;5071940;28;20470;-77
2021/07/01 12:06:17;;;;;;;2.40;2.20;;;16.20;99.90;;;;;;5071588;28;20880;-79
2021/07/01 12:08:43;;;;;;;2.50;2.30;;;16.00;99.90;;;;;;5071663;28;20826;-79
2021/07/01 12:11:08;;;;;;;2.27;2.07;;;16.50;99.90;;;;;;5082636;28;20451;-79
2021/07/01 12:13:34;;;;;;;2.10;1.90;;;16.50;99.90;;;;;;5091077;28;20688;-78
2021/07/01 12:16:08;;;;;;;2.77;2.57;;;16.60;99.90;;;;;;5070700;28;20185;-78
2021/07/01 12:18:45;;;;;;;2.03;1.83;;;16.60;99.90;;;;;;5071543;28;20186;-78
2021/07/01 12:21:20;;;;;;;3.20;2.90;;;17.00;99.90;;;;;;5071459;28;20853;-78
2021/07/01 12:23:48;;;;;;;3.07;2.80;;;17.00;99.90;;;;;;5069715;28;20423;-78
2021/07/01 12:26:52;;;;;;;2.80;2.60;;;17.10;99.90;;;;;;5070990;28;20412;-78
2021/07/01 12:29:20;;;;;;;3.10;2.80;;;17.60;99.90;;;;;;4989432;28;20990;-78
2021/07/01 12:31:47;;;;;;;2.33;2.20;;;17.70;99.90;;;;;;4989780;28;20483;-78
2021/07/01 12:34:19;;;;;;;2.80;2.60;;;18.50;99.90;;;;;;5020025;28;20456;-78
2021/07/01 12:36:56;;;;;;;2.73;2.53;;;19.10;99.90;;;;;;5058716;28;20492;-78
2021/07/01 12:39:26;;;;;;;2.93;2.70;;;20.10;99.90;;;;;;5080771;28;20437;-77
2021/07/01 12:42:06;;;;;;;2.77;2.57;;;21.10;99.90;;;;;;5079087;28;20512;-77
2021/07/01 12:44:36;;;;;;;3.50;3.20;;;21.60;99.90;;;;;;5077511;28;20860;-78
2021/07/01 12:47:28;;;;;;;2.63;2.43;;;21.80;96.80;;;;;;5070753;28;20415;-77
2021/07/01 12:49:56;;;;;;;2.87;2.67;;;21.60;90.70;;;;;;5070701;28;20432;-78
2021/07/01 12:52:31;;;;;;;3.23;2.73;;;21.30;90.90;;;;;;5070384;28;20420;-78